createdAt,value
2019-02-18T00:00:05.661Z,56.90
2019-02-18T00:02:34.178Z,57.08
2019-02-18T00:05:02.681Z,56.80
2019-02-18T00:07:31.905Z,57.18
2019-02-18T00:10:00.395Z,57.02
2019-02-18T00:12:28.926Z,56.59
2019-02-18T00:14:57.545Z,57.04
2019-02-18T00:17:26.174Z,57.67
2019-02-18T00:19:54.688Z,57.15
2019-02-18T00:22:23.317Z,57.48
2019-02-18T00:24:51.885Z,58.22
2019-02-18T00:27:20.370Z,58.66
2019-02-18T00:29:48.923Z,57.91
2019-02-18T00:32:17.449Z,57.36
2019-02-18T00:34:46.059Z,56.84
2019-02-18T00:37:23.906Z,58.73
2019-02-18T00:39:45.111Z,58.54
2019-02-18T00:42:13.745Z,59.14
2019-02-18T00:44:42.435Z,58.53
2019-02-18T00:47:10.947Z,57.98
2019-02-18T00:49:39.494Z,57.45
2019-02-18T00:52:08.071Z,58.31
2019-02-18T00:54:36.620Z,58.71
2019-02-18T00:57:05.146Z,58.85
2019-02-18T00:59:33.747Z,58.41
2019-02-18T01:02:02.345Z,58.61
2019-02-18T01:04:30.896Z,59.86
2019-02-18T01:06:59.480Z,59.62
2019-02-18T01:09:28.162Z,58.82
2019-02-18T01:11:56.798Z,58.26
2019-02-18T01:14:25.397Z,58.50
2019-02-18T01:16:53.982Z,59.26
2019-02-18T01:19:22.619Z,59.09
2019-02-18T01:21:51.124Z,59.12
2019-02-18T01:24:19.688Z,59.27
2019-02-18T01:26:48.321Z,59.75
2019-02-18T01:29:16.859Z,60.38
2019-02-18T01:31:45.438Z,59.25
2019-02-18T01:34:13.947Z,59.01
2019-02-18T01:36:42.553Z,59.73
2019-02-18T01:39:11.144Z,60.74
2019-02-18T01:41:39.672Z,59.83
2019-02-18T01:44:08.577Z,59.28
2019-02-18T01:46:37.153Z,59.70
2019-02-18T01:49:05.771Z,59.79
2019-02-18T01:51:34.250Z,61.07
2019-02-18T01:54:02.719Z,60.36
2019-02-18T01:56:31.330Z,60.40
2019-02-18T01:58:59.905Z,60.40
2019-02-18T02:01:28.526Z,60.91
2019-02-18T02:03:57.067Z,61.20
2019-02-18T02:06:25.853Z,60.61
2019-02-18T02:08:54.330Z,60.21
2019-02-18T02:11:22.975Z,60.24
2019-02-18T02:13:51.581Z,61.26
2019-02-18T02:16:20.213Z,60.90
2019-02-18T02:18:48.875Z,60.71
2019-02-18T02:21:17.375Z,61.07
2019-02-18T02:23:45.984Z,60.82
2019-02-18T02:26:15.539Z,60.98
2019-02-18T02:28:44.165Z,61.04
2019-02-18T02:31:12.640Z,61.13
2019-02-18T02:33:41.262Z,61.24
2019-02-18T02:36:09.921Z,60.65
2019-02-18T02:38:38.389Z,60.15
2019-02-18T02:41:06.976Z,59.71
2019-02-18T02:43:35.523Z,60.67
2019-02-18T02:46:04.108Z,60.43
2019-02-18T02:48:32.612Z,60.04
2019-02-18T02:51:01.083Z,59.70
2019-02-18T02:53:29.663Z,59.36
2019-02-18T02:55:58.215Z,59.57
2019-02-18T02:58:26.758Z,61.20
2019-02-18T03:00:55.378Z,61.52
2019-02-18T03:03:23.919Z,60.91
2019-02-18T03:05:52.490Z,60.36
2019-02-18T03:08:21.181Z,61.07
2019-02-18T03:10:49.759Z,61.15
2019-02-18T03:13:18.274Z,61.53
2019-02-18T03:15:46.869Z,60.51
2019-02-18T03:18:15.424Z,60.97
2019-02-18T03:20:43.959Z,60.84
2019-02-18T03:23:12.478Z,61.13
2019-02-18T03:25:40.986Z,61.20
2019-02-18T03:28:18.887Z,61.28
2019-02-18T03:30:54.368Z,61.94
2019-02-18T03:33:47.604Z,63.41
2019-02-18T03:36:16.261Z,63.41
2019-02-18T03:38:44.860Z,61.94
2019-02-18T03:41:13.365Z,61.94
2019-02-18T03:43:41.968Z,62.28
2019-02-18T03:46:10.496Z,62.55
2019-02-18T03:48:39.050Z,62.23
2019-02-18T03:51:07.695Z,62.63
2019-02-18T03:53:36.315Z,61.77
2019-02-18T03:56:04.896Z,62.07
2019-02-18T03:58:33.484Z,62.40
2019-02-18T04:01:02.070Z,62.25
2019-02-18T04:03:30.680Z,61.91
2019-02-18T04:05:59.353Z,62.12
2019-02-18T04:08:27.936Z,62.24
2019-02-18T04:10:56.515Z,62.43
2019-02-18T04:13:25.124Z,62.88
2019-02-18T04:15:53.698Z,62.44
2019-02-18T04:18:22.321Z,62.43
2019-02-18T04:20:50.920Z,62.60
2019-02-18T04:23:19.445Z,62.13
2019-02-18T04:25:48.075Z,62.58
2019-02-18T04:28:18.571Z,63.15
2019-02-18T04:30:47.118Z,62.75
2019-02-18T04:33:15.557Z,62.36
2019-02-18T04:35:44.075Z,61.96
2019-02-18T04:38:12.648Z,62.56
2019-02-18T04:40:41.148Z,63.17
2019-02-18T04:43:09.765Z,63.22
2019-02-18T04:45:38.270Z,63.08
2019-02-18T04:48:09.220Z,63.75
2019-02-18T04:50:37.132Z,63.09
2019-02-18T04:53:05.786Z,63.61
2019-02-18T04:55:34.230Z,64.00
2019-02-18T04:58:05.855Z,63.01
2019-02-18T05:00:32.936Z,62.94
2019-02-18T05:03:01.535Z,63.29
2019-02-18T05:05:30.083Z,63.00
2019-02-18T05:07:58.674Z,63.53
2019-02-18T05:10:27.314Z,63.59
2019-02-18T05:12:55.852Z,63.14
2019-02-18T05:15:24.413Z,63.14
2019-02-18T05:17:53.044Z,62.92
2019-02-18T05:20:21.594Z,63.61
2019-02-18T05:22:50.120Z,63.46
2019-02-18T05:25:18.698Z,63.85
2019-02-18T05:27:47.324Z,63.17
2019-02-18T05:30:16.364Z,63.09
2019-02-18T05:32:44.942Z,63.01
2019-02-18T05:35:13.468Z,63.23
2019-02-18T05:37:42.084Z,62.93
2019-02-18T05:40:10.662Z,63.17
2019-02-18T05:42:39.256Z,63.47
2019-02-18T05:45:08.980Z,63.29
2019-02-18T05:47:37.608Z,63.50
2019-02-18T05:50:07.936Z,63.64
2019-02-18T05:52:36.596Z,63.80
2019-02-18T05:55:06.996Z,63.49
2019-02-18T05:57:35.573Z,63.56
2019-02-18T06:00:06.112Z,64.00
2019-02-18T06:02:34.709Z,64.23
2019-02-18T06:05:03.327Z,64.54
2019-02-18T06:07:31.836Z,64.71
2019-02-18T06:10:00.451Z,64.69
2019-02-18T06:12:44.437Z,64.28
2019-02-18T06:18:53.816Z,64.68
2019-02-18T06:21:22.375Z,64.12
2019-02-18T06:23:50.860Z,64.65
2019-02-18T06:26:19.442Z,65.43
2019-02-18T06:28:48.038Z,64.67
2019-02-18T06:31:16.724Z,64.20
2019-02-18T06:33:45.239Z,64.02
2019-02-18T06:36:13.875Z,64.30
2019-02-18T06:38:42.567Z,64.45
2019-02-18T06:41:11.144Z,64.69
2019-02-18T06:43:39.811Z,64.39
2019-02-18T06:46:16.044Z,64.41
2019-02-18T06:48:46.086Z,64.34
2019-02-18T06:51:16.967Z,63.81
2019-02-18T06:53:44.836Z,64.26
2019-02-18T06:56:13.435Z,63.74
2019-02-18T06:58:43.563Z,64.23
2019-02-18T07:01:19.695Z,63.81
2019-02-18T07:03:52.858Z,63.10
2019-02-18T07:06:35.130Z,63.10
2019-02-18T07:09:11.124Z,63.49
2019-02-18T07:11:44.342Z,63.53
2019-02-18T07:14:12.842Z,63.48
2019-02-18T07:16:41.409Z,63.45
2019-02-18T07:19:10.010Z,63.35
2019-02-18T07:21:38.599Z,63.93
2019-02-18T07:24:07.249Z,63.39
2019-02-18T07:26:35.690Z,63.38
2019-02-18T07:29:04.307Z,63.54
2019-02-18T07:31:32.884Z,63.39
2019-02-18T07:34:01.447Z,63.51
2019-02-18T07:36:29.898Z,64.12
2019-02-18T07:38:58.685Z,63.20
2019-02-18T07:41:27.281Z,62.84
2019-02-18T07:43:55.949Z,63.18
2019-02-18T07:46:24.543Z,63.32
2019-02-18T07:48:53.085Z,62.74
2019-02-18T07:51:21.710Z,63.19
2019-02-18T07:53:50.309Z,62.70
2019-02-18T07:56:19.017Z,62.32
2019-02-18T07:58:47.581Z,62.49
2019-02-18T08:01:16.209Z,61.73
2019-02-18T08:03:44.802Z,61.15
2019-02-18T08:06:13.348Z,60.43
2019-02-18T08:08:42.076Z,60.25
2019-02-18T08:11:10.635Z,59.41
2019-02-18T08:13:39.207Z,58.68
2019-02-18T08:16:08.543Z,57.99
2019-02-18T08:18:37.099Z,56.96
2019-02-18T08:21:05.779Z,56.36
2019-02-18T08:23:34.332Z,55.59
2019-02-18T08:26:05.648Z,55.02
2019-02-18T08:28:34.136Z,54.45
2019-02-18T08:31:02.716Z,54.07
2019-02-18T08:33:31.208Z,53.08
2019-02-18T08:35:59.749Z,53.08
2019-02-18T08:38:29.012Z,52.60
2019-02-18T08:40:57.551Z,51.53
2019-02-18T08:43:26.148Z,50.79
2019-02-18T08:45:54.769Z,49.85
2019-02-18T08:48:24.186Z,49.82
2019-02-18T08:50:52.878Z,49.51
2019-02-18T08:53:21.491Z,49.79
2019-02-18T08:55:50.098Z,48.66
2019-02-18T08:58:18.639Z,48.28
2019-02-18T09:00:47.172Z,48.52
2019-02-18T09:03:15.718Z,48.24
2019-02-18T09:05:44.376Z,46.88
2019-02-18T09:08:12.947Z,46.45
2019-02-18T09:10:41.592Z,46.04
2019-02-18T09:13:10.236Z,44.61
2019-02-18T09:15:38.798Z,44.60
2019-02-18T09:18:07.435Z,44.43
2019-02-18T09:20:35.968Z,44.19
2019-02-18T09:23:06.227Z,42.80
2019-02-18T09:25:36.388Z,43.32
2019-02-18T09:28:05.031Z,42.93
2019-02-18T09:30:35.243Z,43.52
2019-02-18T09:33:03.917Z,43.60
2019-02-18T09:35:32.413Z,41.98
2019-02-18T09:38:01.082Z,41.54
2019-02-18T09:40:29.793Z,42.04
2019-02-18T09:42:58.363Z,41.37
2019-02-18T09:45:26.913Z,40.58
2019-02-18T09:47:55.496Z,40.94
2019-02-18T09:50:24.045Z,41.83
2019-02-18T09:52:52.659Z,41.97
2019-02-18T09:55:21.284Z,41.75
2019-02-18T09:57:49.840Z,40.68
2019-02-18T10:00:18.467Z,41.17
2019-02-18T10:02:47.169Z,41.23
2019-02-18T10:05:15.742Z,40.98
2019-02-18T10:07:44.221Z,39.71
2019-02-18T10:10:12.794Z,39.67
2019-02-18T10:12:41.251Z,39.65
2019-02-18T10:15:11.438Z,39.21
2019-02-18T10:17:40.060Z,39.13
2019-02-18T10:20:10.950Z,39.80
2019-02-18T10:22:39.574Z,37.53
2019-02-18T10:25:10.871Z,37.79
2019-02-18T10:27:39.547Z,37.38
2019-02-18T10:30:11.826Z,37.21
2019-02-18T10:32:40.412Z,37.79
2019-02-18T10:35:11.331Z,37.19
2019-02-18T10:37:40.762Z,37.33
2019-02-18T10:40:10.619Z,36.75
2019-02-18T10:42:39.229Z,37.25
2019-02-18T10:45:12.737Z,36.50
2019-02-18T10:47:41.355Z,36.46
2019-02-18T10:50:11.265Z,36.10
2019-02-18T10:52:40.091Z,35.93
2019-02-18T10:55:10.260Z,35.48
2019-02-18T10:57:41.742Z,35.02
2019-02-18T11:00:20.776Z,35.05
2019-02-18T11:02:49.358Z,36.28
2019-02-18T11:05:18.007Z,34.17
2019-02-18T11:07:46.659Z,34.86
2019-02-18T11:10:16.414Z,34.17
2019-02-18T11:12:47.480Z,34.43
2019-02-18T11:15:15.882Z,33.57
2019-02-18T11:17:44.810Z,34.29
2019-02-18T11:20:14.246Z,34.19
2019-02-18T11:22:42.757Z,34.11
2019-02-18T11:25:12.896Z,34.29
2019-02-18T11:27:41.557Z,33.88
2019-02-18T11:30:18.499Z,33.94
2019-02-18T11:32:47.394Z,33.78
2019-02-18T11:35:16.070Z,34.48
2019-02-18T11:37:44.619Z,34.21
2019-02-18T11:40:18.163Z,34.52
2019-02-18T11:42:46.753Z,34.57
2019-02-18T11:45:16.608Z,33.45
2019-02-18T11:47:45.221Z,33.24
2019-02-18T11:50:16.799Z,33.24
2019-02-18T11:52:45.435Z,32.82
2019-02-18T11:55:14.654Z,33.07
2019-02-18T11:57:43.549Z,33.51
2019-02-18T12:00:14.416Z,32.30
2019-02-18T12:02:43.105Z,32.94
2019-02-18T12:05:11.924Z,33.34
2019-02-18T12:07:40.494Z,33.34
2019-02-18T12:10:11.212Z,33.34
2019-02-18T12:12:40.219Z,31.83
2019-02-18T12:15:15.626Z,32.06
2019-02-18T12:17:44.240Z,32.53
2019-02-18T12:20:14.166Z,31.26
2019-02-18T12:22:42.881Z,32.24
2019-02-18T12:25:12.789Z,32.85
2019-02-18T12:27:41.676Z,31.92
2019-02-18T12:30:15.631Z,31.93
2019-02-18T12:32:44.329Z,31.46
2019-02-18T12:35:13.075Z,32.08
2019-02-18T12:37:41.861Z,32.10
2019-02-18T12:40:14.946Z,31.78
2019-02-18T12:42:43.678Z,32.13
2019-02-18T12:45:13.009Z,31.82
2019-02-18T12:47:41.696Z,31.65
2019-02-18T12:50:11.694Z,32.61
2019-02-18T12:52:40.492Z,32.66
2019-02-18T12:55:10.723Z,32.39
2019-02-18T12:57:39.774Z,31.96
2019-02-18T13:00:11.067Z,31.76
2019-02-18T13:02:44.106Z,31.28
2019-02-18T13:05:10.673Z,31.77
2019-02-18T13:07:39.385Z,31.36
2019-02-18T13:10:09.676Z,31.54
2019-02-18T13:12:38.306Z,32.16
2019-02-18T13:15:12.624Z,31.96
2019-02-18T13:17:42.800Z,32.82
2019-02-18T13:20:11.654Z,31.27
2019-02-18T13:22:40.366Z,31.14
2019-02-18T13:25:09.875Z,31.94
2019-02-18T13:27:38.529Z,32.16
2019-02-18T13:30:12.840Z,32.92
2019-02-18T13:32:41.476Z,31.95
2019-02-18T13:35:10.169Z,31.16
2019-02-18T13:37:38.855Z,32.29
2019-02-18T13:40:08.174Z,31.72
2019-02-18T13:42:36.793Z,30.97
2019-02-18T13:45:07.685Z,31.40
2019-02-18T13:47:36.379Z,31.29
2019-02-18T13:50:08.081Z,30.98
2019-02-18T13:52:36.737Z,31.88
2019-02-18T13:55:07.770Z,31.56
2019-02-18T13:57:36.401Z,31.98
2019-02-18T14:00:08.255Z,31.77
2019-02-18T14:02:42.152Z,30.92
2019-02-18T14:05:10.744Z,30.92
2019-02-18T14:07:39.363Z,31.03
2019-02-18T14:10:08.148Z,31.01
2019-02-18T14:12:37.152Z,30.60
2019-02-18T14:15:09.660Z,31.12
2019-02-18T14:17:38.482Z,30.59
2019-02-18T14:20:14.794Z,30.23
2019-02-18T14:22:43.437Z,30.88
2019-02-18T14:25:12.559Z,30.11
2019-02-18T14:27:41.864Z,31.06
2019-02-18T14:30:15.605Z,30.47
2019-02-18T14:32:44.337Z,29.89
2019-02-18T14:35:14.035Z,30.80
2019-02-18T14:37:42.663Z,29.98
2019-02-18T14:40:12.919Z,30.81
2019-02-18T14:42:41.552Z,32.00
2019-02-18T14:45:10.938Z,32.32
2019-02-18T14:47:39.702Z,32.54
2019-02-18T14:50:09.813Z,31.64
2019-02-18T14:52:38.469Z,32.28
2019-02-18T14:55:08.868Z,32.28
2019-02-18T14:57:38.203Z,31.60
2019-02-18T15:00:14.415Z,31.58
2019-02-18T15:02:43.166Z,31.94
2019-02-18T15:05:11.758Z,32.04
2019-02-18T15:07:40.756Z,31.53
2019-02-18T15:10:10.987Z,32.17
2019-02-18T15:12:39.776Z,31.75
2019-02-18T15:15:08.480Z,31.84
2019-02-18T15:17:37.112Z,32.74
2019-02-18T15:20:07.898Z,32.07
2019-02-18T15:22:36.800Z,32.65
2019-02-18T15:25:07.903Z,32.00
2019-02-18T15:27:36.624Z,32.55
2019-02-18T15:30:08.413Z,32.86
2019-02-18T15:32:37.040Z,32.87
2019-02-18T15:35:05.733Z,32.92
2019-02-18T15:37:34.613Z,33.22
2019-02-18T15:40:04.121Z,33.28
2019-02-18T15:42:32.791Z,33.58
2019-02-18T15:45:01.413Z,33.98
2019-02-18T15:47:30.051Z,34.39
2019-02-18T15:49:58.627Z,34.61
2019-02-18T15:52:27.771Z,35.25
2019-02-18T15:54:56.274Z,34.61
2019-02-18T15:57:24.930Z,35.28
2019-02-18T15:59:53.574Z,35.07
2019-02-18T16:02:22.196Z,36.20
2019-02-18T16:04:50.707Z,36.00
2019-02-18T16:07:20.868Z,35.95
2019-02-18T16:09:49.502Z,36.46
2019-02-18T16:12:18.135Z,36.80
2019-02-18T16:14:46.712Z,37.27
2019-02-18T16:17:15.386Z,37.08
2019-02-18T16:19:43.994Z,37.21
2019-02-18T16:22:12.673Z,37.51
2019-02-18T16:24:41.583Z,37.23
2019-02-18T16:27:10.227Z,37.50
2019-02-18T16:29:38.796Z,37.61
2019-02-18T16:32:07.418Z,38.99
2019-02-18T16:34:36.063Z,39.27
2019-02-18T16:37:04.931Z,40.34
2019-02-18T16:39:33.554Z,41.38
2019-02-18T16:42:02.486Z,41.47
2019-02-18T16:44:31.192Z,42.10
2019-02-18T16:46:59.781Z,42.31
2019-02-18T16:49:28.431Z,44.05
2019-02-18T16:51:57.077Z,43.53
2019-02-18T16:54:25.908Z,43.98
2019-02-18T16:56:54.520Z,45.12
2019-02-18T16:59:23.097Z,42.67
2019-02-18T17:01:51.666Z,41.68
2019-02-18T17:04:20.221Z,40.31
2019-02-18T17:06:48.767Z,39.35
2019-02-18T17:09:17.370Z,39.35
2019-02-18T17:11:45.998Z,38.77
2019-02-18T17:14:14.606Z,38.35
2019-02-18T17:16:43.190Z,38.83
2019-02-18T17:19:11.707Z,39.36
2019-02-18T17:21:40.332Z,39.18
2019-02-18T17:24:08.927Z,39.55
2019-02-18T17:26:37.956Z,38.80
2019-02-18T17:29:06.585Z,39.49
2019-02-18T17:31:35.167Z,39.51
2019-02-18T17:34:03.784Z,39.72
2019-02-18T17:36:32.422Z,39.43
2019-02-18T17:39:01.052Z,39.13
2019-02-18T17:41:29.757Z,39.11
2019-02-18T17:43:58.424Z,39.94
2019-02-18T17:46:26.868Z,40.04
2019-02-18T17:48:55.455Z,40.34
2019-02-18T17:51:24.091Z,40.79
2019-02-18T17:53:52.657Z,40.26
2019-02-18T17:56:21.176Z,40.96
2019-02-18T17:58:51.046Z,41.80
2019-02-18T18:01:19.606Z,42.09
2019-02-18T18:03:48.146Z,40.86
2019-02-18T18:06:16.764Z,40.80
2019-02-18T18:08:45.455Z,40.79
2019-02-18T18:11:14.036Z,41.66
2019-02-18T18:13:42.974Z,41.05
2019-02-18T18:16:11.599Z,41.56
2019-02-18T18:18:40.148Z,41.45
2019-02-18T18:21:08.798Z,41.70
2019-02-18T18:23:37.412Z,42.26
2019-02-18T18:26:06.033Z,42.68
2019-02-18T18:28:34.520Z,41.73
2019-02-18T18:31:03.103Z,42.51
2019-02-18T18:33:31.719Z,42.46
2019-02-18T18:36:00.337Z,43.06
2019-02-18T18:38:29.045Z,42.49
2019-02-18T18:40:57.681Z,43.06
2019-02-18T18:43:33.636Z,42.97
2019-02-18T18:45:56.589Z,42.97
2019-02-18T18:48:25.200Z,43.60
2019-02-18T18:50:53.790Z,44.43
2019-02-18T18:53:22.397Z,44.44
2019-02-18T18:55:50.943Z,44.24
2019-02-18T18:58:19.632Z,44.57
2019-02-18T19:00:48.528Z,44.76
2019-02-18T19:03:17.231Z,45.12
2019-02-18T19:05:45.779Z,45.08
2019-02-18T19:08:14.343Z,45.46
2019-02-18T19:10:43.021Z,46.15
2019-02-18T19:13:11.704Z,45.69
2019-02-18T19:15:49.307Z,45.80
2019-02-18T19:18:11.231Z,46.08
2019-02-18T19:20:39.811Z,46.99
2019-02-18T19:23:08.386Z,46.60
2019-02-18T19:25:37.003Z,46.93
2019-02-18T19:28:05.538Z,47.02
2019-02-18T19:30:34.571Z,47.68
2019-02-18T19:33:06.765Z,47.96
2019-02-18T19:35:35.416Z,48.22
2019-02-18T19:38:03.976Z,48.97
2019-02-18T19:40:32.755Z,48.63
2019-02-18T19:43:01.374Z,48.40
2019-02-18T19:45:30.012Z,48.91
2019-02-18T19:47:58.689Z,48.32
2019-02-18T19:50:27.280Z,48.38
2019-02-18T19:52:55.994Z,47.97
2019-02-18T19:55:25.527Z,49.23
2019-02-18T19:57:54.211Z,48.72
2019-02-18T20:00:23.023Z,49.36
2019-02-18T20:02:51.667Z,48.89
2019-02-18T20:05:20.261Z,48.71
2019-02-18T20:07:48.994Z,49.06
2019-02-18T20:10:17.976Z,49.54
2019-02-18T20:12:46.659Z,49.26
2019-02-18T20:15:17.822Z,49.05
2019-02-18T20:17:46.507Z,49.38
2019-02-18T20:20:16.511Z,49.91
2019-02-18T20:22:45.225Z,49.53
2019-02-18T20:25:14.248Z,49.04
2019-02-18T20:27:43.059Z,49.17
2019-02-18T20:30:14.422Z,49.44
2019-02-18T20:32:43.084Z,50.03
2019-02-18T20:35:12.006Z,49.66
2019-02-18T20:37:40.731Z,50.29
2019-02-18T20:40:11.070Z,51.30
2019-02-18T20:42:39.966Z,50.27
2019-02-18T20:45:11.284Z,50.63
2019-02-18T20:47:39.951Z,50.41
2019-02-18T20:50:13.564Z,50.54
2019-02-18T20:52:42.300Z,50.09
2019-02-18T20:55:14.140Z,50.18
2019-02-18T20:57:43.971Z,50.18
2019-02-18T21:00:16.624Z,50.14
2019-02-18T21:02:45.174Z,50.58
2019-02-18T21:05:13.763Z,50.28
2019-02-18T21:07:42.418Z,50.24
2019-02-18T21:10:17.145Z,50.59
2019-02-18T21:12:45.823Z,51.07
2019-02-18T21:15:14.464Z,50.64
2019-02-18T21:17:43.181Z,50.29
2019-02-18T21:20:13.484Z,50.59
2019-02-18T21:22:42.124Z,50.57
2019-02-18T21:25:11.611Z,50.64
2019-02-18T21:27:40.312Z,50.87
2019-02-18T21:30:16.929Z,51.36
2019-02-18T21:32:45.558Z,50.87
2019-02-18T21:35:14.165Z,51.20
2019-02-18T21:37:45.937Z,50.91
2019-02-18T21:40:14.652Z,51.00
2019-02-18T21:42:43.271Z,51.20
2019-02-18T21:45:13.808Z,51.56
2019-02-18T21:47:43.297Z,51.06
2019-02-18T21:50:12.828Z,51.25
2019-02-18T21:52:41.585Z,51.57
2019-02-18T21:55:11.975Z,52.50
2019-02-18T21:57:41.291Z,52.24
2019-02-18T22:00:16.869Z,51.79
2019-02-18T22:02:45.496Z,52.11
2019-02-18T22:05:14.623Z,52.51
2019-02-18T22:07:44.831Z,52.10
2019-02-18T22:10:15.004Z,51.94
2019-02-18T22:12:43.682Z,51.93
2019-02-18T22:15:16.505Z,52.27
2019-02-18T22:17:45.412Z,52.92
2019-02-18T22:20:15.115Z,52.33
2019-02-18T22:22:43.746Z,52.24
2019-02-18T22:25:13.801Z,52.32
2019-02-18T22:27:42.360Z,52.11
2019-02-18T22:30:14.298Z,52.74
2019-02-18T22:32:42.844Z,52.71
2019-02-18T22:35:11.572Z,52.65
2019-02-18T22:37:40.189Z,53.04
2019-02-18T22:40:12.790Z,52.91
2019-02-18T22:42:41.353Z,52.77
2019-02-18T22:45:11.439Z,52.61
2019-02-18T22:47:40.344Z,52.38
2019-02-18T22:50:11.171Z,52.65
2019-02-18T22:52:39.805Z,52.71
2019-02-18T22:55:09.801Z,52.86
2019-02-18T22:57:38.562Z,53.10
2019-02-18T23:00:26.908Z,53.50
2019-02-18T23:02:55.926Z,53.31
2019-02-18T23:05:24.429Z,52.74
2019-02-18T23:07:55.198Z,53.03
2019-02-18T23:10:23.760Z,53.13
2019-02-18T23:12:52.404Z,53.48
2019-02-18T23:15:20.996Z,52.88
2019-02-18T23:17:49.534Z,53.80
2019-02-18T23:20:25.723Z,53.79
2019-02-18T23:22:54.315Z,53.59
2019-02-18T23:25:22.954Z,53.46
2019-02-18T23:27:51.664Z,53.29
2019-02-18T23:30:20.262Z,53.39
2019-02-18T23:32:49.295Z,54.00
2019-02-18T23:35:17.827Z,53.75
2019-02-18T23:37:46.463Z,54.25
2019-02-18T23:40:15.684Z,53.99
2019-02-18T23:42:44.417Z,55.22
2019-02-18T23:45:13.060Z,54.44
2019-02-18T23:47:41.670Z,54.79
2019-02-18T23:50:10.540Z,54.14
2019-02-18T23:52:39.116Z,54.29
2019-02-18T23:55:07.769Z,54.52
2019-02-18T23:57:37.442Z,54.41
